This is the latest recevied weather packets stored in our database for station/object KO6MEX-13. If no packets are shown the sender has not sent any weather packets the latest 10 day(s).
| Time | Temp. | Humidity | Pressure | Rain* | Wind** | Luminosity | Snow |
|---|---|---|---|---|---|---|---|
| 1777942198 | 17.22° C | 60% | 1018.1 hPa | 0 mm | - | 281 W/m² | - |
| 1777941894 | 16.67° C | 62% | 1018.1 hPa | 0 mm | - | 296 W/m² | - |
| 1777941591 | 17.22° C | 60% | 1017.9 hPa | 0 mm | - | 318 W/m² | - |
| 1777941288 | 17.22° C | 60% | 1018.1 hPa | 0 mm | - | 314 W/m² | - |
| 1777940984 | 18.33° C | 55% | 1018 hPa | 0 mm | - | 327 W/m² | - |
| 1777940681 | 17.78° C | 57% | 1018.1 hPa | 0 mm | - | 379 W/m² | - |
| 1777940379 | 17.22° C | 60% | 1017.9 hPa | 0 mm | - | 339 W/m² | - |
| 1777940076 | 17.78° C | 61% | 1018 hPa | 0 mm | - | 357 W/m² | - |
| 1777939773 | 18.33° C | 61% | 1018.2 hPa | 0 mm | - | 401 W/m² | - |
| 1777939471 | 17.78° C | 62% | 1018 hPa | 0 mm | - | 426 W/m² | - |
| 1777939168 | 17.78° C | 62% | 1018.2 hPa | 0 mm | - | 443 W/m² | - |
| 1777938865 | 17.78° C | 62% | 1017.9 hPa | 0 mm | - | 439 W/m² | - |
| 1777938561 | 17.78° C | 61% | 1018 hPa | 0 mm | - | 457 W/m² | - |
| 1777938259 | 17.78° C | 58% | 1017.9 hPa | 0 mm | - | 462 W/m² | - |
| 1777937955 | 17.78° C | 58% | 1018.1 hPa | 0 mm | - | 463 W/m² | - |
| 1777937651 | 17.78° C | 57% | 1017.9 hPa | 0 mm | - | 486 W/m² | - |
| 1777937348 | 17.78° C | 59% | 1018.2 hPa | 0 mm | - | 491 W/m² | - |
| 1777937045 | 17.78° C | 60% | 1018.1 hPa | 0 mm | - | 498 W/m² | - |
| 1777936742 | 17.78° C | 60% | 1018.3 hPa | 0 mm | - | 541 W/m² | - |
| 1777936438 | 17.78° C | 61% | 1018.2 hPa | 0 mm | - | 557 W/m² | - |
| 1777936135 | 17.78° C | 62% | 1018.3 hPa | 0 mm | - | 568 W/m² | - |
| 1777935832 | 17.78° C | 60% | 1018.4 hPa | 0 mm | - | 578 W/m² | - |
| 1777935531 | 17.22° C | 61% | 1018.5 hPa | 0 mm | - | 589 W/m² | - |
| 1777935227 | 17.22° C | 64% | 1018.7 hPa | 0 mm | - | 596 W/m² | - |
| 1777934924 | 17.22° C | 67% | 1018.6 hPa | 0 mm | - | 598 W/m² | - |
* Rain latest hour (hover to see other rain measurements)
** Current wind speed in m/s (hover to see current wind gust speed)